Time;durP1;ratioP1;P1;durP2;ratioP2;P2;SDS_P1;SDS_P2;PMS_P1;PMS_P2;Temp;Humidity;BMP_temperature;BMP_pressure;BME280_temperature;BME280_humidity;BME280_pressure;Samples;Min_cycle;Max_cycle;Signal;HPM_P1;HPM_P2
2022/02/11 00:01:00;;;;;;;3.97;1.90;;;;;;;1.93;100.00;101079.13;6016664;23;20034;-83
2022/02/11 00:08:47;;;;;;;4.30;2.23;;;;;;;1.83;100.00;101077.16;6015047;23;20069;-83
2022/02/11 00:11:19;;;;;;;4.57;2.00;;;;;;;1.80;100.00;101071.00;6014671;23;20027;-83
2022/02/11 00:13:45;;;;;;;4.27;2.37;;;;;;;1.80;100.00;101086.63;6037192;23;20027;-83
2022/02/11 00:16:12;;;;;;;3.63;2.13;;;;;;;1.78;100.00;101078.78;6015700;23;20363;-82
2022/02/11 00:18:39;;;;;;;4.57;2.20;;;;;;;1.76;100.00;101074.38;6013962;23;20035;-83
2022/02/11 00:21:05;;;;;;;4.83;2.43;;;;;;;1.78;100.00;101075.31;6014322;23;20027;-83
2022/02/11 00:23:35;;;;;;;5.70;2.43;;;;;;;1.79;100.00;101069.25;5990521;23;20026;-83
2022/02/11 00:26:03;;;;;;;4.77;2.10;;;;;;;1.76;100.00;101075.25;6016434;23;20404;-83
2022/02/11 00:33:52;;;;;;;6.57;2.53;;;;;;;1.81;100.00;101070.16;6040214;23;20101;-83
2022/02/11 00:36:24;;;;;;;6.70;3.30;;;;;;;1.74;100.00;101070.88;6016023;23;20024;-82
2022/02/11 00:45:02;;;;;;;5.50;2.50;;;;;;;1.62;100.00;101066.28;6013262;23;20595;-83
2022/02/11 01:06:03;;;;;;;6.10;2.67;;;;;;;1.40;100.00;101078.78;6018479;23;20022;-82
2022/02/11 01:08:29;;;;;;;4.53;1.90;;;;;;;1.41;100.00;101079.66;6014321;23;20065;-83
2022/02/11 01:10:58;;;;;;;4.93;2.00;;;;;;;1.40;100.00;101072.72;5992105;23;20030;-83
2022/02/11 01:13:25;;;;;;;3.37;1.70;;;;;;;1.37;100.00;101073.53;6015319;23;20067;-83
2022/02/11 01:16:00;;;;;;;4.20;1.93;;;;;;;1.41;100.00;101082.28;6016118;23;20033;-82
2022/02/11 01:18:26;;;;;;;2.63;1.40;;;;;;;1.39;100.00;101073.56;6039565;23;20026;-82
2022/02/11 01:21:09;;;;;;;5.47;1.90;;;;;;;1.31;100.00;101080.31;6015418;23;20025;-83
2022/02/11 01:23:49;;;;;;;2.73;1.60;;;;;;;1.26;100.00;101071.50;6017559;23;20023;-83
2022/02/11 01:29:23;;;;;;;4.13;1.80;;;;;;;1.26;100.00;101068.91;6017115;23;20046;-82
2022/02/11 01:34:38;;;;;;;6.03;2.10;;;;;;;1.24;100.00;101068.84;6038928;23;20022;-83
2022/02/11 01:45:33;;;;;;;2.27;1.63;;;;;;;1.16;100.00;101054.78;6043482;23;20358;-82
2022/02/11 01:53:37;;;;;;;4.37;1.83;;;;;;;1.11;100.00;101052.09;6038082;23;20023;-82
2022/02/11 02:22:42;;;;;;;2.73;1.37;;;;;;;0.91;100.00;101047.22;6040323;23;20027;-82
2022/02/11 02:33:48;;;;;;;5.73;2.07;;;;;;;0.74;100.00;101029.47;6017973;23;20923;-82
2022/02/11 02:58:13;;;;;;;2.80;1.80;;;;;;;0.48;100.00;101018.41;6020600;23;20031;-82
2022/02/11 03:17:59;;;;;;;3.10;1.93;;;;;;;0.58;100.00;101014.31;6017798;23;20049;-83
2022/02/11 03:56:55;;;;;;;5.27;2.20;;;;;;;0.39;100.00;100999.09;6006250;23;20026;-82
2022/02/11 04:56:57;;;;;;;3.97;2.60;;;;;;;0.31;100.00;101026.59;6060343;23;20059;-82
2022/02/11 04:59:39;;;;;;;5.40;2.20;;;;;;;0.31;100.00;101024.00;6014042;23;20033;-81
2022/02/11 05:02:06;;;;;;;2.87;2.10;;;;;;;0.29;100.00;101023.97;6018079;23;20458;-83
2022/02/11 05:04:33;;;;;;;4.27;2.33;;;;;;;0.31;100.00;101037.00;6037338;23;20070;-82
2022/02/11 05:07:03;;;;;;;5.27;3.10;;;;;;;0.32;100.00;101042.25;6038829;23;20133;-82
2022/02/11 05:09:31;;;;;;;7.03;3.80;;;;;;;0.30;100.00;101030.94;6015145;23;20023;-82
2022/02/11 05:11:58;;;;;;;5.47;3.07;;;;;;;0.32;100.00;101028.38;6014210;23;20484;-82
2022/02/11 05:14:25;;;;;;;7.37;3.20;;;;;;;0.30;100.00;101032.66;6011392;23;20034;-82
2022/02/11 05:16:52;;;;;;;6.47;3.20;;;;;;;0.31;100.00;101030.09;6039282;23;20097;-82
2022/02/11 05:19:18;;;;;;;6.07;2.93;;;;;;;0.32;100.00;101023.16;6012955;23;20037;-82
2022/02/11 05:21:45;;;;;;;4.93;3.00;;;;;;;0.33;100.00;101033.59;6015574;23;20030;-82
2022/02/11 05:24:12;;;;;;;4.93;3.10;;;;;;;0.34;100.00;101030.19;6037360;23;20058;-83
2022/02/11 05:26:39;;;;;;;5.60;2.77;;;;;;;0.35;100.00;101025.88;6040150;23;20031;-82
2022/02/11 05:29:06;;;;;;;4.07;2.77;;;;;;;0.36;100.00;101025.91;6013247;23;20019;-82
2022/02/11 05:31:33;;;;;;;3.47;2.50;;;;;;;0.39;100.00;101017.31;6015763;23;20454;-84
2022/02/11 05:34:00;;;;;;;4.70;3.03;;;;;;;0.38;100.00;101019.03;6038293;23;20605;-84
2022/02/11 05:36:26;;;;;;;4.83;3.03;;;;;;;0.41;100.00;101021.69;6016921;23;20363;-82
2022/02/11 05:38:53;;;;;;;7.43;3.27;;;;;;;0.41;100.00;101023.41;6015258;23;20335;-82
2022/02/11 05:41:20;;;;;;;4.53;3.07;;;;;;;0.42;100.00;101026.06;6065654;23;20369;-83
2022/02/11 05:43:47;;;;;;;3.90;2.50;;;;;;;0.46;100.00;101027.91;6015506;23;20029;-83
2022/02/11 05:46:15;;;;;;;6.33;2.87;;;;;;;0.44;100.00;101029.59;6038874;23;20023;-82
2022/02/11 05:48:43;;;;;;;5.73;3.10;;;;;;;0.43;100.00;101024.34;6037320;23;20037;-83
2022/02/11 05:51:10;;;;;;;5.73;3.53;;;;;;;0.43;100.00;101024.34;5992143;23;20367;-83
2022/02/11 05:53:37;;;;;;;6.50;3.30;;;;;;;0.43;100.00;101020.03;6013825;23;20030;-84
2022/02/11 05:56:04;;;;;;;5.43;3.40;;;;;;;0.47;100.00;101033.97;6015632;23;20035;-84
2022/02/11 05:58:30;;;;;;;5.97;3.90;;;;;;;0.44;100.00;101039.09;6037436;23;20042;-84
2022/02/11 06:00:57;;;;;;;6.43;3.13;;;;;;;0.41;100.00;101039.88;6014429;23;20049;-85
2022/02/11 06:03:25;;;;;;;8.87;4.40;;;;;;;0.43;100.00;101035.63;6013950;23;20037;-82
2022/02/11 06:05:52;;;;;;;7.67;3.53;;;;;;;0.35;100.00;101034.53;6015758;23;20030;-84
2022/02/11 06:08:18;;;;;;;8.83;3.30;;;;;;;0.34;100.00;101030.19;6037793;23;20027;-84
2022/02/11 06:10:46;;;;;;;7.13;3.87;;;;;;;0.42;100.00;101036.47;6015357;23;20027;-84
2022/02/11 06:13:16;;;;;;;5.60;3.30;;;;;;;0.32;100.00;101038.75;6014169;23;20115;-84
2022/02/11 06:15:43;;;;;;;6.70;3.47;;;;;;;0.31;100.00;101039.59;6039211;23;20027;-85
2022/02/11 06:18:10;;;;;;;4.67;2.97;;;;;;;0.25;100.00;101049.00;6013350;23;20023;-84
2022/02/11 06:20:37;;;;;;;5.43;2.97;;;;;;;0.23;100.00;101047.19;6014251;23;20403;-85
2022/02/11 06:23:03;;;;;;;6.73;3.43;;;;;;;0.20;100.00;101049.72;6013579;23;20027;-83
2022/02/11 06:25:31;;;;;;;4.80;3.70;;;;;;;0.21;100.00;101043.69;5992600;23;20057;-84
2022/02/11 06:27:58;;;;;;;4.87;3.20;;;;;;;0.23;100.00;101052.38;6013280;23;20526;-84
2022/02/11 06:30:26;;;;;;;6.73;3.30;;;;;;;0.21;100.00;101052.34;5991484;23;20078;-84
2022/02/11 06:32:59;;;;;;;4.65;3.13;;;;;;;0.22;100.00;101054.09;6014638;23;20034;-85
2022/02/11 06:35:31;;;;;;;5.77;3.77;;;;;;;0.25;100.00;101053.28;6038991;23;20050;-82
2022/02/11 06:37:58;;;;;;;5.80;3.97;;;;;;;0.27;100.00;101052.53;6037888;23;20141;-82
2022/02/11 06:40:29;;;;;;;7.47;3.83;;;;;;;0.28;100.00;101058.59;6014446;23;20367;-82
2022/02/11 06:42:59;;;;;;;5.87;3.30;;;;;;;0.30;100.00;101049.13;6037765;23;20033;-82
2022/02/11 06:45:26;;;;;;;7.47;3.87;;;;;;;0.30;100.00;101063.84;6015424;23;20027;-82
2022/02/11 06:47:53;;;;;;;5.83;3.40;;;;;;;0.27;100.00;101059.44;6013539;23;20034;-83
2022/02/11 06:50:21;;;;;;;6.37;3.60;;;;;;;0.25;100.00;101061.09;6015295;23;20658;-82
2022/02/11 06:52:49;;;;;;;8.37;4.33;;;;;;;0.23;100.00;101063.66;6013941;23;20034;-82
2022/02/11 06:55:16;;;;;;;6.47;4.70;;;;;;;0.26;100.00;101075.88;5992206;23;20351;-82
2022/02/11 06:57:43;;;;;;;6.27;3.60;;;;;;;0.17;100.00;101070.38;6038229;23;20027;-82
2022/02/11 07:00:12;;;;;;;7.57;3.97;;;;;;;0.11;100.00;101075.44;6013863;23;20530;-82
2022/02/11 07:02:39;;;;;;;6.60;4.40;;;;;;;0.09;100.00;101070.22;6014835;23;20102;-82
2022/02/11 07:05:06;;;;;;;7.60;3.43;;;;;;;0.02;100.00;101076.06;6018353;23;20027;-82
2022/02/11 07:07:33;;;;;;;5.27;3.40;;;;;;;-0.01;100.00;101075.94;6017963;23;20366;-82
2022/02/11 07:10:00;;;;;;;7.13;4.03;;;;;;;-0.04;100.00;101073.28;6016405;23;20054;-83
2022/02/11 07:12:27;;;;;;;6.00;3.90;;;;;;;-0.03;100.00;101085.41;6019110;23;20746;-82
2022/02/11 07:14:53;;;;;;;6.70;4.03;;;;;;;-0.10;100.00;101086.94;6015886;23;20355;-82
2022/02/11 07:17:20;;;;;;;7.97;3.60;;;;;;;-0.12;100.00;101100.75;5994247;23;20031;-83
2022/02/11 07:19:47;;;;;;;6.33;4.00;;;;;;;-0.14;100.00;101100.69;6016091;23;20590;-82
2022/02/11 07:22:14;;;;;;;8.57;5.07;;;;;;;-0.14;100.00;101111.09;6017230;23;20033;-82
2022/02/11 07:24:41;;;;;;;10.47;4.33;;;;;;;-0.15;100.00;101119.72;6016283;23;20030;-82
2022/02/11 07:27:09;;;;;;;12.50;5.93;;;;;;;-0.14;100.00;101129.25;6017239;23;20026;-82
2022/02/11 07:29:36;;;;;;;8.17;4.87;;;;;;;-0.13;100.00;101140.53;6015879;23;20023;-82
2022/02/11 07:32:03;;;;;;;11.63;6.43;;;;;;;-0.09;100.00;101140.66;5993221;23;20026;-82
2022/02/11 07:34:30;;;;;;;11.63;6.50;;;;;;;0.01;100.00;101141.84;6015127;23;20033;-82
2022/02/11 07:36:56;;;;;;;10.93;6.93;;;;;;;0.12;100.00;101156.00;6017616;23;20027;-82
2022/02/11 07:39:43;;;;;;;11.33;6.47;;;;;;;0.25;100.00;101165.03;6042619;23;20019;-81
2022/02/11 07:42:10;;;;;;;10.70;6.00;;;;;;;0.34;100.00;101160.13;6015756;23;20026;-81
2022/02/11 07:44:36;;;;;;;11.03;6.23;;;;;;;0.43;100.00;101157.78;5991408;23;20045;-81
2022/02/11 07:47:03;;;;;;;9.97;6.20;;;;;;;0.51;100.00;101156.28;5992971;23;20051;-82
2022/02/11 07:49:30;;;;;;;11.33;6.07;;;;;;;0.57;100.00;101150.38;6037649;23;20086;-82
2022/02/11 07:51:57;;;;;;;12.93;6.77;;;;;;;0.64;100.00;101154.03;6015180;23;20462;-82
2022/02/11 07:54:26;;;;;;;11.97;6.33;;;;;;;0.73;100.00;101162.06;6013437;23;20659;-82
2022/02/11 07:56:54;;;;;;;12.80;6.03;;;;;;;0.86;100.00;101163.31;6016969;23;20041;-82
2022/02/11 07:59:20;;;;;;;10.27;6.27;;;;;;;0.96;100.00;101160.97;6013952;23;20031;-82
2022/02/11 08:01:47;;;;;;;14.53;7.50;;;;;;;1.06;100.00;101156.88;5991485;23;20018;-82
2022/02/11 08:04:14;;;;;;;13.67;7.10;;;;;;;1.11;100.00;101150.09;6036309;23;20447;-81
2022/02/11 08:06:41;;;;;;;12.53;6.40;;;;;;;1.18;100.00;101154.63;6013438;23;20027;-82
2022/02/11 08:09:08;;;;;;;14.03;6.23;;;;;;;1.22;100.00;101156.44;6013247;23;20082;-82
2022/02/11 08:11:34;;;;;;;13.47;7.80;;;;;;;1.29;100.00;101144.47;6022926;23;20634;-82
2022/02/11 08:14:02;;;;;;;12.87;6.43;;;;;;;1.35;100.00;101148.13;6012858;23;20030;-82
2022/02/11 08:16:29;;;;;;;11.53;6.60;;;;;;;1.38;100.00;101155.09;6038925;23;20023;-81
2022/02/11 08:18:57;;;;;;;12.33;6.40;;;;;;;1.37;100.00;101151.63;6013125;23;20389;-82
2022/02/11 08:21:24;;;;;;;13.53;6.97;;;;;;;1.42;100.00;101156.94;6014584;23;20037;-82
2022/02/11 08:23:51;;;;;;;10.90;6.70;;;;;;;1.47;100.00;101164.88;6012987;23;20438;-82
2022/02/11 08:26:18;;;;;;;11.07;6.60;;;;;;;1.53;100.00;101168.50;6037177;23;20033;-82
2022/02/11 08:28:45;;;;;;;22.63;8.47;;;;;;;1.60;100.00;101164.34;5988240;23;20030;-81
2022/02/11 08:31:12;;;;;;;11.87;6.33;;;;;;;1.62;100.00;101160.91;5990210;23;20026;-82
2022/02/11 08:33:38;;;;;;;14.43;7.37;;;;;;;1.65;100.00;101165.31;6009827;23;20026;-81
2022/02/11 08:36:05;;;;;;;11.60;6.00;;;;;;;1.70;100.00;101161.09;6034771;23;20025;-81
2022/02/11 08:38:32;;;;;;;13.73;5.80;;;;;;;1.68;100.00;101170.56;6009348;23;20026;-81
2022/02/11 08:41:00;;;;;;;12.53;6.50;;;;;;;1.77;100.00;101167.34;6010168;23;20027;-81
2022/02/11 08:43:27;;;;;;;14.73;7.53;;;;;;;1.83;100.00;101175.28;6033130;23;20022;-81
2022/02/11 08:45:54;;;;;;;16.47;7.27;;;;;;;1.86;100.00;101170.16;6007779;23;20066;-82
2022/02/11 08:48:20;;;;;;;15.70;7.23;;;;;;;2.05;100.00;101171.44;6034405;23;20022;-81
2022/02/11 08:50:47;;;;;;;12.03;6.30;;;;;;;2.00;100.00;101178.25;6037234;23;20034;-82
2022/02/11 08:53:32;;;;;;;17.67;7.57;;;;;;;2.12;100.00;101176.81;5996296;23;20518;-81
2022/02/11 08:56:06;;;;;;;15.80;7.23;;;;;;;2.28;100.00;101183.25;6014393;23;20408;-81
2022/02/11 08:58:35;;;;;;;13.10;8.00;;;;;;;2.35;100.00;101187.72;6012589;23;20142;-82
2022/02/11 09:01:05;;;;;;;14.33;7.23;;;;;;;2.37;100.00;101193.00;6036726;23;20809;-81
2022/02/11 09:03:34;;;;;;;13.70;7.30;;;;;;;2.36;100.00;101186.91;6012753;23;20046;-82
2022/02/11 09:06:05;;;;;;;16.47;7.43;;;;;;;2.43;100.00;101180.94;6014726;23;20094;-82
2022/02/11 09:08:36;;;;;;;15.50;7.73;;;;;;;2.45;100.00;101187.09;5988843;23;20545;-81
2022/02/11 09:11:05;;;;;;;18.60;7.97;;;;;;;2.56;100.00;101186.44;6010154;23;20037;-81
2022/02/11 09:13:31;;;;;;;13.77;6.87;;;;;;;2.64;100.00;101188.34;6029631;23;20023;-82
2022/02/11 09:15:58;;;;;;;13.60;6.77;;;;;;;2.73;100.00;101188.53;6035556;23;20411;-82
2022/02/11 09:18:25;;;;;;;15.63;7.23;;;;;;;2.82;100.00;101196.53;6034401;23;20038;-81
2022/02/11 09:20:51;;;;;;;19.37;8.10;;;;;;;2.93;100.00;101203.69;6059956;23;20031;-82
2022/02/11 09:23:20;;;;;;;17.03;7.73;;;;;;;3.00;100.00;101195.13;6035632;23;20027;-80
2022/02/11 09:25:46;;;;;;;15.23;7.30;;;;;;;3.04;100.00;101195.22;6060531;23;20019;-82
2022/02/11 09:28:13;;;;;;;11.60;6.47;;;;;;;3.05;100.00;101203.94;6035447;23;20035;-82
2022/02/11 09:30:40;;;;;;;14.10;8.00;;;;;;;3.05;100.00;101206.53;6066675;23;20027;-82
2022/02/11 09:33:08;;;;;;;13.93;7.63;;;;;;;3.14;100.00;101211.94;6040085;23;20031;-82
2022/02/11 09:35:35;;;;;;;17.87;8.07;;;;;;;3.23;100.00;101217.31;6041478;23;20073;-82
2022/02/11 09:38:02;;;;;;;14.83;6.87;;;;;;;3.33;100.00;101219.22;6065165;23;20027;-82
2022/02/11 09:40:29;;;;;;;14.87;7.67;;;;;;;3.32;100.00;101222.69;6043302;23;20037;-82
2022/02/11 09:42:56;;;;;;;14.17;7.53;;;;;;;3.39;100.00;101226.31;6041466;23;20079;-83
2022/02/11 09:45:24;;;;;;;17.77;8.77;;;;;;;3.47;100.00;101216.88;6046200;23;20019;-82
2022/02/11 09:47:51;;;;;;;14.90;9.33;;;;;;;3.60;100.00;101225.78;6044810;23;20714;-83
2022/02/11 09:50:20;;;;;;;15.70;7.83;;;;;;;3.66;100.00;101233.75;6022384;23;20052;-82
2022/02/11 09:52:51;;;;;;;17.03;8.70;;;;;;;3.74;100.00;101229.50;6021604;23;20015;-83
2022/02/11 09:55:37;;;;;;;16.10;8.17;;;;;;;3.80;100.00;101234.84;6023971;23;20049;-82
2022/02/11 09:58:13;;;;;;;16.70;8.63;;;;;;;3.89;100.00;101235.00;6043258;23;20337;-83
2022/02/11 10:00:44;;;;;;;13.30;7.87;;;;;;;3.95;100.00;101242.94;6020029;23;20518;-82
2022/02/11 10:03:18;;;;;;;15.97;8.13;;;;;;;4.01;100.00;101249.97;6019082;23;20074;-81
2022/02/11 10:06:09;;;;;;;17.50;8.23;;;;;;;4.05;100.00;101249.19;6068378;23;20051;-81
2022/02/11 10:08:40;;;;;;;16.33;7.80;;;;;;;4.15;100.00;101252.81;6018909;23;20027;-81
2022/02/11 10:11:08;;;;;;;15.77;8.03;;;;;;;4.27;100.00;101253.00;6047114;23;20031;-82
2022/02/11 10:13:39;;;;;;;15.53;8.43;;;;;;;4.26;100.00;101251.22;6046113;23;20086;-83
2022/02/11 10:16:10;;;;;;;12.60;7.83;;;;;;;4.30;100.00;101252.19;6024662;23;20050;-83
2022/02/11 10:18:39;;;;;;;14.70;7.53;;;;;;;4.36;100.00;101249.63;6021463;23;20034;-81
2022/02/11 10:21:08;;;;;;;14.33;7.40;;;;;;;4.48;100.00;101257.66;6023239;23;20038;-82
2022/02/11 10:23:37;;;;;;;13.37;7.97;;;;;;;4.47;100.00;101261.16;6024154;23;20029;-82
2022/02/11 10:26:15;;;;;;;17.93;9.13;;;;;;;4.52;100.00;101265.56;6028076;23;20042;-82
2022/02/11 10:28:49;;;;;;;14.60;7.93;;;;;;;4.44;100.00;101261.97;6000577;23;20023;-82
2022/02/11 10:31:34;;;;;;;15.87;8.60;;;;;;;4.48;100.00;101261.16;6071424;23;20101;-81
2022/02/11 10:34:07;;;;;;;16.43;8.50;;;;;;;4.47;100.00;101262.03;6020039;23;20030;-81
2022/02/11 10:36:36;;;;;;;15.80;8.53;;;;;;;4.55;100.00;101263.88;6068966;23;20029;-81
2022/02/11 10:39:25;;;;;;;16.77;9.03;;;;;;;4.50;100.00;101261.19;6046478;23;20043;-81
2022/02/11 10:41:55;;;;;;;17.53;8.77;;;;;;;4.66;100.00;101264.88;6019666;23;20057;-82
2022/02/11 10:44:39;;;;;;;18.33;8.57;;;;;;;4.71;100.00;101263.22;6065767;23;20023;-81
2022/02/11 10:47:09;;;;;;;16.92;8.70;;;;;;;4.76;100.00;101270.25;6044589;23;20391;-80
2022/02/11 10:49:38;;;;;;;16.07;8.73;;;;;;;4.88;100.00;101268.66;6017497;23;20031;-81
2022/02/11 10:52:17;;;;;;;15.83;9.27;;;;;;;4.84;100.00;101272.09;6018508;23;20074;-81
2022/02/11 10:54:45;;;;;;;17.63;9.17;;;;;;;4.89;100.00;101275.66;6064398;23;20034;-81
2022/02/11 10:57:14;;;;;;;15.40;8.83;;;;;;;4.96;100.00;101270.53;6018594;23;20411;-81
2022/02/11 10:59:44;;;;;;;17.70;9.53;;;;;;;5.22;100.00;101264.69;6017345;23;20455;-82
2022/02/11 11:02:16;;;;;;;12.90;8.53;;;;;;;5.51;100.00;101271.09;6018717;23;20089;-82
2022/02/11 11:04:42;;;;;;;12.70;8.20;;;;;;;5.55;100.00;101262.44;6041689;23;20046;-83
2022/02/11 11:07:13;;;;;;;19.07;8.63;;;;;;;5.69;100.00;101261.66;6001361;23;20033;-82
2022/02/11 11:09:52;;;;;;;15.47;8.67;;;;;;;5.84;100.00;101251.31;6024977;23;20027;-82
2022/02/11 11:12:22;;;;;;;13.70;7.70;;;;;;;5.79;100.00;101253.88;6043773;23;20050;-82
2022/02/11 11:14:55;;;;;;;14.53;7.90;;;;;;;5.92;100.00;101260.16;6038604;23;20026;-82
2022/02/11 11:17:23;;;;;;;17.23;8.47;;;;;;;5.86;100.00;101258.31;6042372;23;20476;-82
2022/02/11 11:19:52;;;;;;;14.80;8.17;;;;;;;5.74;100.00;101267.84;6039548;23;20114;-85
2022/02/11 11:22:33;;;;;;;12.87;8.53;;;;;;;5.61;99.88;101262.47;6042318;23;20049;-82
2022/02/11 11:25:05;;;;;;;11.43;8.40;;;;;;;5.75;100.00;101266.97;6016672;23;20107;-82
2022/02/11 11:27:37;;;;;;;16.40;8.97;;;;;;;6.03;100.00;101274.22;6042429;23;20348;-82
2022/02/11 11:30:30;;;;;;;14.53;7.90;;;;;;;6.33;100.00;101267.47;6064270;23;20094;-82
2022/02/11 11:33:06;;;;;;;15.67;7.90;;;;;;;6.32;98.55;101284.06;5993190;23;20022;-84
2022/02/11 11:35:58;;;;;;;15.57;7.20;;;;;;;6.05;93.67;101276.84;6066110;23;20018;-82
2022/02/11 11:38:38;;;;;;;15.87;7.33;;;;;;;5.80;94.50;101284.50;6033480;23;20081;-83
2022/02/11 11:41:20;;;;;;;13.73;6.73;;;;;;;5.61;94.70;101300.91;6017805;23;20113;-82
2022/02/11 11:43:59;;;;;;;14.23;6.67;;;;;;;5.57;96.49;101300.00;6040078;23;20023;-82
2022/02/11 11:46:31;;;;;;;11.60;7.37;;;;;;;5.64;96.92;101306.19;6042251;23;20354;-82
2022/02/11 11:49:07;;;;;;;14.03;5.93;;;;;;;5.84;96.65;101298.50;6039315;23;20026;-83
2022/02/11 11:51:37;;;;;;;12.20;6.97;;;;;;;6.12;92.83;101300.53;6064951;23;20038;-84
2022/02/11 11:54:21;;;;;;;13.43;7.40;;;;;;;6.29;92.63;101299.78;6063493;23;20023;-82
2022/02/11 11:57:07;;;;;;;12.48;7.57;;;;;;;6.52;93.80;101306.06;6041377;23;20466;-83
2022/02/11 11:59:50;;;;;;;11.07;6.47;;;;;;;6.73;89.90;101303.59;6039781;23;20217;-83
2022/02/11 12:02:20;;;;;;;13.23;5.73;;;;;;;6.42;80.80;101304.25;6017870;23;20023;-83
2022/02/11 12:04:55;;;;;;;12.20;5.50;;;;;;;6.82;85.07;101304.50;6040858;23;20034;-83
2022/02/11 12:07:25;;;;;;;10.77;5.97;;;;;;;7.07;82.82;101311.63;6025273;23;20098;-83
2022/02/11 12:09:54;;;;;;;13.87;6.63;;;;;;;6.90;77.64;101308.03;6043164;23;20031;-83
2022/02/11 12:12:24;;;;;;;13.50;5.93;;;;;;;7.01;81.66;101306.34;6047146;23;20031;-83
2022/02/11 12:14:56;;;;;;;10.60;6.70;;;;;;;7.08;77.08;101302.88;6019968;23;20027;-83
2022/02/11 12:17:24;;;;;;;9.77;5.50;;;;;;;7.16;83.18;101300.28;6048140;23;20098;-83
2022/02/11 12:19:51;;;;;;;10.73;5.07;;;;;;;7.01;80.98;101327.34;6022434;23;20082;-82
2022/02/11 12:22:20;;;;;;;9.20;4.77;;;;;;;6.76;79.66;101323.72;6047450;23;20077;-83
2022/02/11 12:27:40;;;;;;;11.57;5.30;;;;;;;6.49;83.44;101330.56;6021637;23;20086;-83
2022/02/11 12:30:21;;;;;;;8.17;5.10;;;;;;;6.52;85.03;101328.81;6018348;23;20078;-83
2022/02/11 12:32:57;;;;;;;11.43;5.63;;;;;;;6.46;84.30;101334.88;6043461;23;20054;-83
2022/02/11 12:35:24;;;;;;;13.50;6.97;;;;;;;6.33;83.35;101341.81;6019764;23;20074;-83
2022/02/11 12:37:51;;;;;;;8.97;5.27;;;;;;;6.12;86.54;101344.25;6065781;23;20030;-83
2022/02/11 12:40:23;;;;;;;8.93;5.40;;;;;;;6.07;86.52;101346.84;6044595;23;20026;-82
2022/02/11 12:42:51;;;;;;;11.17;6.10;;;;;;;5.76;87.87;101350.88;6019515;23;20462;-83
2022/02/11 12:45:41;;;;;;;13.20;6.60;;;;;;;5.74;89.98;101357.84;6019031;23;20023;-83
2022/02/11 12:48:13;;;;;;;12.10;5.80;;;;;;;5.98;90.28;101359.88;6017308;23;20121;-83
2022/02/11 12:50:46;;;;;;;8.83;5.70;;;;;;;6.12;84.11;101359.97;6018844;23;20043;-83
2022/02/11 12:53:16;;;;;;;10.88;5.75;;;;;;;6.02;86.88;101366.03;6041193;23;20046;-83
2022/02/11 12:55:45;;;;;;;9.17;6.30;;;;;;;6.05;88.21;101366.03;6039267;23;20332;-85
2022/02/11 12:58:13;;;;;;;13.03;6.47;;;;;;;6.25;87.41;101367.13;6015932;23;20030;-85
2022/02/11 13:00:42;;;;;;;12.77;6.53;;;;;;;6.44;84.92;101369.00;6039778;23;20030;-85
2022/02/11 13:03:10;;;;;;;10.23;5.87;;;;;;;6.60;84.14;101377.00;6046811;23;20037;-83
2022/02/11 13:05:39;;;;;;;10.87;6.03;;;;;;;6.66;84.21;101371.81;6027235;23;20038;-82
2022/02/11 13:08:08;;;;;;;10.73;6.03;;;;;;;6.69;82.86;101374.44;6040012;23;20090;-82
2022/02/11 13:10:39;;;;;;;10.23;5.27;;;;;;;6.85;83.21;101381.56;6018210;23;20031;-81
2022/02/11 13:13:16;;;;;;;12.10;5.57;;;;;;;7.09;84.08;101393.06;6038556;23;20027;-83
2022/02/11 13:15:45;;;;;;;11.27;5.53;;;;;;;7.17;81.59;101394.88;6017682;23;20525;-81
2022/02/11 13:18:17;;;;;;;8.57;4.77;;;;;;;7.22;78.18;101393.13;6039741;23;20130;-82
2022/02/11 13:20:53;;;;;;;7.97;4.60;;;;;;;7.37;78.00;101400.22;6016780;23;20407;-82
2022/02/11 13:23:24;;;;;;;6.87;4.43;;;;;;;7.21;77.50;101391.38;6014646;23;20033;-84
2022/02/11 13:25:53;;;;;;;9.33;3.90;;;;;;;7.09;72.93;101396.59;6041522;23;20078;-82
2022/02/11 13:28:20;;;;;;;9.10;5.07;;;;;;;6.93;75.01;101395.59;6039783;23;20034;-82
2022/02/11 13:31:01;;;;;;;11.50;4.40;;;;;;;6.72;75.81;101405.97;6016721;23;20026;-82
2022/02/11 13:33:29;;;;;;;8.17;4.53;;;;;;;6.55;76.09;101411.09;6012474;23;20042;-83
2022/02/11 13:36:08;;;;;;;10.20;4.33;;;;;;;6.14;74.75;101424.75;6039524;23;20023;-82
2022/02/11 13:38:45;;;;;;;7.17;4.33;;;;;;;6.20;77.88;101430.03;6015304;23;20018;-83
2022/02/11 13:41:13;;;;;;;7.03;3.50;;;;;;;5.93;75.30;101432.38;6039488;23;20026;-83
2022/02/11 13:43:49;;;;;;;6.43;3.97;;;;;;;5.87;78.44;101427.03;6015258;23;20052;-81
2022/02/11 13:46:40;;;;;;;10.00;4.77;;;;;;;5.72;80.36;101434.72;6039556;23;20023;-82
2022/02/11 13:49:16;;;;;;;9.27;3.70;;;;;;;5.63;81.07;101446.88;6013071;23;20411;-83
2022/02/11 13:53:01;;;;;;;8.10;3.90;;;;;;;5.31;80.37;101445.56;6015611;23;20145;-82
2022/02/11 13:54:35;;;;;;;8.57;4.07;;;;;;;5.26;81.09;101450.75;6018138;23;20031;-83
2022/02/11 13:57:04;;;;;;;8.53;3.77;;;;;;;5.32;82.97;101447.34;6016647;23;20070;-82
2022/02/11 13:59:31;;;;;;;8.70;4.30;;;;;;;5.30;83.77;101447.31;6013736;23;20023;-83
2022/02/11 14:02:10;;;;;;;8.77;4.43;;;;;;;5.47;82.54;101455.41;6015252;23;20101;-82
2022/02/11 14:04:39;;;;;;;6.47;4.10;;;;;;;5.53;82.81;101458.06;6062427;23;20031;-83
2022/02/11 14:07:12;;;;;;;6.47;4.43;;;;;;;5.62;82.68;101462.56;6017661;23;20019;-82
2022/02/11 14:09:42;;;;;;;7.03;4.17;;;;;;;5.67;82.53;101462.63;6014648;23;20023;-84
2022/02/11 14:12:13;;;;;;;9.60;4.47;;;;;;;5.66;79.93;101469.63;6040428;23;20493;-81
2022/02/11 14:15:09;;;;;;;7.50;4.33;;;;;;;5.61;81.87;101468.66;6062935;23;20027;-81
2022/02/11 14:17:39;;;;;;;7.53;4.37;;;;;;;5.53;82.06;101465.06;5976030;23;20026;-83
2022/02/11 14:20:13;;;;;;;6.73;4.67;;;;;;;5.35;83.79;101470.94;6016503;23;20034;-81
2022/02/11 14:22:39;;;;;;;11.77;5.53;;;;;;;5.32;83.01;101474.41;6017351;23;20022;-82
2022/02/11 14:25:06;;;;;;;7.63;4.47;;;;;;;5.26;84.42;101486.53;6062482;23;20037;-82
2022/02/11 14:27:35;;;;;;;10.40;4.80;;;;;;;5.24;84.71;101480.41;6041608;23;20015;-83
2022/02/11 14:30:03;;;;;;;8.27;4.30;;;;;;;5.23;86.01;101497.00;5993413;23;20035;-82
2022/02/11 14:32:31;;;;;;;7.47;4.43;;;;;;;5.16;84.18;101497.75;6040075;23;20109;-83
2022/02/11 14:34:58;;;;;;;14.00;4.73;;;;;;;5.18;84.74;101493.41;6037477;23;20027;-83
2022/02/11 14:37:25;;;;;;;8.77;5.20;;;;;;;4.95;84.20;101493.91;6016323;23;20117;-84
2022/02/11 14:39:51;;;;;;;10.27;4.60;;;;;;;5.23;83.39;101494.38;5991978;23;20026;-83
2022/02/11 14:42:18;;;;;;;7.87;4.03;;;;;;;5.18;83.25;101512.63;6017604;23;20375;-81
2022/02/11 14:44:45;;;;;;;7.17;4.33;;;;;;;5.13;85.03;101510.78;6017425;23;20030;-84
2022/02/11 14:47:13;;;;;;;10.37;5.50;;;;;;;5.16;84.25;101519.59;6019140;23;20023;-84
2022/02/11 14:49:41;;;;;;;10.60;4.53;;;;;;;5.14;82.86;101523.03;6065011;23;20070;-81
2022/02/11 14:52:09;;;;;;;6.50;4.13;;;;;;;5.06;83.11;101533.41;6021684;23;20023;-83
2022/02/11 14:54:36;;;;;;;9.57;3.67;;;;;;;5.04;81.33;101538.63;6021505;23;20130;-83
2022/02/11 14:57:07;;;;;;;7.40;3.70;;;;;;;5.08;81.90;101539.53;6003517;23;20802;-82
2022/02/11 14:59:34;;;;;;;8.70;3.70;;;;;;;4.96;82.06;101547.16;6018689;23;20023;-82
2022/02/11 15:02:00;;;;;;;10.57;4.20;;;;;;;5.12;83.20;101550.94;6023891;23;20055;-83
2022/02/11 15:04:27;;;;;;;5.90;3.70;;;;;;;5.02;82.23;101556.03;5993744;23;20035;-82
2022/02/11 15:06:54;;;;;;;8.93;4.37;;;;;;;4.80;80.20;101569.63;6022578;23;20027;-82
2022/02/11 15:09:22;;;;;;;7.33;4.00;;;;;;;4.81;81.94;101579.25;6020759;23;20022;-83
2022/02/11 15:11:49;;;;;;;7.97;3.60;;;;;;;4.74;84.02;101590.44;6000195;23;20514;-83
2022/02/11 15:14:21;;;;;;;6.67;3.63;;;;;;;4.85;84.33;101588.91;6022013;23;20891;-83
2022/02/11 15:16:49;;;;;;;9.67;3.90;;;;;;;4.72;83.81;101598.28;6020772;23;20177;-82
2022/02/11 15:19:16;;;;;;;7.00;4.07;;;;;;;4.83;82.47;101606.31;6020116;23;20042;-83
2022/02/11 15:21:43;;;;;;;7.90;3.60;;;;;;;4.79;86.03;101609.72;5999790;23;20035;-80
2022/02/11 15:24:11;;;;;;;7.73;3.93;;;;;;;4.68;84.95;101616.50;6044070;23;20041;-83